createdAt,value
2023-03-31T00:01:27.807Z,5.53
2023-03-31T00:04:05.477Z,5.32
2023-03-31T00:06:38.254Z,5.93
2023-03-31T00:09:11.831Z,4.60
2023-03-31T00:11:41.114Z,5.55
2023-03-31T00:14:10.511Z,5.10
2023-03-31T00:16:40.606Z,5.25
2023-03-31T00:19:10.522Z,5.82
2023-03-31T00:21:42.883Z,5.32
2023-03-31T00:24:13.899Z,5.05
2023-03-31T00:26:42.458Z,5.43
2023-03-31T00:29:14.189Z,4.15
2023-03-31T00:31:42.520Z,5.50
2023-03-31T00:34:11.949Z,5.25
2023-03-31T00:36:45.921Z,5.47
2023-03-31T00:39:17.979Z,5.13
2023-03-31T00:41:46.763Z,4.97
2023-03-31T00:44:19.119Z,4.65
2023-03-31T00:46:53.765Z,5.53
2023-03-31T00:49:30.259Z,4.67
2023-03-31T00:52:05.442Z,4.25
2023-03-31T00:54:37.345Z,3.35
2023-03-31T00:57:08.792Z,5.13
2023-03-31T00:59:42.059Z,4.45
2023-03-31T01:02:13.587Z,4.50
2023-03-31T01:04:47.382Z,5.20
2023-03-31T01:07:24.166Z,4.63
2023-03-31T01:09:59.308Z,4.32
2023-03-31T01:12:29.099Z,4.32
2023-03-31T01:14:58.319Z,3.60
2023-03-31T01:17:30.045Z,4.75
2023-03-31T01:20:15.204Z,4.22
2023-03-31T01:23:34.427Z,3.87
2023-03-31T01:26:44.208Z,3.75
2023-03-31T01:29:39.718Z,4.43
2023-03-31T01:33:05.196Z,3.88
2023-03-31T01:36:09.401Z,3.35
2023-03-31T01:39:37.839Z,3.50
2023-03-31T01:42:16.117Z,3.45
2023-03-31T01:44:55.409Z,3.97
2023-03-31T01:47:34.630Z,3.58
2023-03-31T01:50:08.166Z,3.97
2023-03-31T01:52:45.075Z,4.30
2023-03-31T01:55:20.105Z,4.10
2023-03-31T01:57:55.293Z,3.88
2023-03-31T02:00:33.486Z,4.15
2023-03-31T02:03:12.860Z,4.68
2023-03-31T02:05:48.175Z,3.83
2023-03-31T02:08:21.644Z,3.53
2023-03-31T02:10:52.933Z,4.22
2023-03-31T02:13:25.067Z,4.85
2023-03-31T02:15:58.218Z,5.22
2023-03-31T02:18:33.362Z,5.57
2023-03-31T02:21:03.675Z,5.43
2023-03-31T02:23:34.386Z,5.65
2023-03-31T02:26:08.649Z,5.65
2023-03-31T02:28:39.780Z,5.57
2023-03-31T02:31:23.603Z,5.65
2023-03-31T02:33:53.438Z,5.65
2023-03-31T02:36:22.618Z,6.25
2023-03-31T02:38:56.207Z,6.70
2023-03-31T02:41:25.018Z,6.50
2023-03-31T02:43:55.034Z,5.88
2023-03-31T02:46:24.037Z,5.40
2023-03-31T02:48:56.649Z,6.00
2023-03-31T02:52:33.106Z,6.13
2023-03-31T02:55:50.009Z,5.57
2023-03-31T02:58:40.730Z,5.55
2023-03-31T03:01:27.142Z,6.07
2023-03-31T03:04:10.652Z,5.90
2023-03-31T03:06:54.015Z,6.25
2023-03-31T03:09:43.173Z,6.25
2023-03-31T03:12:22.185Z,5.60
2023-03-31T03:14:57.433Z,5.53
2023-03-31T03:17:32.921Z,3.92
2023-03-31T03:20:07.911Z,4.05
2023-03-31T03:22:39.978Z,3.83
2023-03-31T03:25:12.150Z,3.75
2023-03-31T03:27:41.847Z,3.50
2023-03-31T03:30:14.305Z,3.90
2023-03-31T03:32:47.533Z,4.13
2023-03-31T03:35:17.350Z,5.78
2023-03-31T03:37:46.129Z,4.95
2023-03-31T03:40:15.446Z,6.85
2023-03-31T03:42:44.205Z,7.40
2023-03-31T03:45:12.968Z,8.50
2023-03-31T03:47:41.523Z,7.55
2023-03-31T03:50:15.984Z,7.43
2023-03-31T03:52:45.214Z,8.02
2023-03-31T03:55:14.105Z,7.82
2023-03-31T03:57:42.482Z,7.07
2023-03-31T04:00:13.476Z,7.75
2023-03-31T04:02:45.085Z,7.13
2023-03-31T04:05:15.938Z,6.88
2023-03-31T04:07:44.493Z,6.88
2023-03-31T04:10:13.352Z,7.13
2023-03-31T04:12:45.320Z,5.53
2023-03-31T04:15:15.326Z,6.30
2023-03-31T04:17:51.305Z,7.15
2023-03-31T04:20:22.533Z,6.40
2023-03-31T04:22:51.106Z,5.82
2023-03-31T04:25:22.942Z,5.50
2023-03-31T04:27:55.079Z,5.53
2023-03-31T04:30:25.397Z,5.65
2023-03-31T04:32:57.462Z,5.13
2023-03-31T04:35:42.837Z,5.03
2023-03-31T04:38:11.503Z,4.82
2023-03-31T04:40:41.604Z,5.90
2023-03-31T04:43:10.312Z,4.60
2023-03-31T04:45:39.052Z,4.57
2023-03-31T04:48:08.712Z,4.53
2023-03-31T04:50:40.827Z,3.97
2023-03-31T04:53:09.763Z,4.40
2023-03-31T04:55:41.414Z,4.20
2023-03-31T04:58:10.944Z,3.60
2023-03-31T05:00:39.692Z,4.00
2023-03-31T05:03:10.092Z,3.63
2023-03-31T05:05:40.957Z,3.67
2023-03-31T05:08:15.438Z,3.67
2023-03-31T05:10:44.177Z,3.47
2023-03-31T05:13:15.940Z,3.17
2023-03-31T05:15:45.338Z,2.63
2023-03-31T05:18:13.973Z,2.63
2023-03-31T05:20:45.185Z,2.92
2023-03-31T05:23:14.106Z,3.17
2023-03-31T05:25:42.682Z,3.15
2023-03-31T05:28:13.611Z,3.75
2023-03-31T05:30:45.691Z,3.30
2023-03-31T05:33:14.600Z,3.90
2023-03-31T05:35:45.730Z,3.72
2023-03-31T05:38:14.244Z,3.50
2023-03-31T05:40:42.862Z,4.63
2023-03-31T05:43:11.345Z,3.58
2023-03-31T05:45:40.245Z,3.80
2023-03-31T05:48:09.009Z,3.92
2023-03-31T05:50:45.580Z,4.07
2023-03-31T05:53:13.926Z,4.20
2023-03-31T05:55:42.302Z,3.55
2023-03-31T05:58:10.940Z,3.97
2023-03-31T06:00:41.893Z,4.07
2023-03-31T06:03:10.471Z,3.72
2023-03-31T06:05:44.699Z,3.90
2023-03-31T06:08:15.130Z,3.63
2023-03-31T06:10:45.668Z,3.80
2023-03-31T06:13:15.761Z,3.45
2023-03-31T06:15:44.604Z,3.90
2023-03-31T06:18:13.121Z,3.75
2023-03-31T06:20:48.265Z,3.65
2023-03-31T06:25:51.781Z,3.20
2023-03-31T06:28:21.389Z,3.30
2023-03-31T06:30:49.776Z,3.03
2023-03-31T06:33:20.090Z,3.03
2023-03-31T06:35:48.756Z,3.50
2023-03-31T06:38:19.257Z,4.05
2023-03-31T06:40:48.125Z,3.47
2023-03-31T06:43:16.591Z,3.45
2023-03-31T06:45:46.652Z,3.65
2023-03-31T06:48:15.724Z,3.53
2023-03-31T06:50:45.248Z,3.75
2023-03-31T06:53:14.001Z,3.28
2023-03-31T06:55:44.003Z,3.40
2023-03-31T06:58:12.770Z,3.75
2023-03-31T07:00:41.325Z,3.35
2023-03-31T07:03:10.353Z,3.30
2023-03-31T07:05:39.037Z,3.33
2023-03-31T07:08:08.675Z,3.63
2023-03-31T07:10:40.019Z,3.13
2023-03-31T07:13:10.345Z,2.85
2023-03-31T07:15:40.330Z,3.03
2023-03-31T07:18:09.710Z,2.63
2023-03-31T07:20:38.130Z,2.75
2023-03-31T07:23:08.356Z,2.65
2023-03-31T07:25:37.633Z,2.97
2023-03-31T07:28:09.622Z,3.13
2023-03-31T07:30:41.254Z,2.70
2023-03-31T07:33:13.115Z,3.10
2023-03-31T07:35:43.322Z,2.80
2023-03-31T07:38:14.171Z,2.40
2023-03-31T07:40:45.280Z,2.70
2023-03-31T07:43:18.791Z,2.45
2023-03-31T07:45:49.537Z,2.33
2023-03-31T07:48:18.463Z,2.53
2023-03-31T07:50:47.613Z,2.15
2023-03-31T07:53:18.631Z,2.10
2023-03-31T07:55:49.358Z,2.35
2023-03-31T07:58:18.032Z,2.70
2023-03-31T08:00:46.864Z,2.42
2023-03-31T08:03:17.493Z,2.45
2023-03-31T08:05:51.149Z,2.30
2023-03-31T08:08:22.659Z,2.88
2023-03-31T08:10:55.335Z,2.35
2023-03-31T08:13:24.841Z,2.35
2023-03-31T08:15:53.549Z,2.22
2023-03-31T08:18:26.647Z,2.78
2023-03-31T08:20:55.160Z,2.60
2023-03-31T08:23:23.682Z,2.75
2023-03-31T08:25:52.510Z,3.33
2023-03-31T08:28:21.193Z,2.65
2023-03-31T08:30:50.094Z,3.17
2023-03-31T08:33:19.638Z,2.22
2023-03-31T08:35:50.712Z,3.20
2023-03-31T08:38:19.274Z,3.25
2023-03-31T08:40:48.145Z,2.63
2023-03-31T08:43:26.813Z,2.70
2023-03-31T08:45:56.425Z,3.08
2023-03-31T08:48:29.555Z,2.55
2023-03-31T08:51:08.044Z,2.72
2023-03-31T08:53:43.746Z,3.03
2023-03-31T08:58:50.720Z,3.10
2023-03-31T09:01:32.522Z,2.70
2023-03-31T09:04:26.058Z,3.35
2023-03-31T09:07:03.886Z,2.78
2023-03-31T09:09:44.227Z,2.90
2023-03-31T09:12:21.435Z,3.28
2023-03-31T09:14:59.216Z,3.30
2023-03-31T09:17:31.621Z,2.88
2023-03-31T09:20:08.194Z,3.10
2023-03-31T09:22:43.207Z,2.83
2023-03-31T09:25:17.179Z,3.03
2023-03-31T09:27:48.183Z,3.00
2023-03-31T09:30:22.023Z,2.22
2023-03-31T09:32:54.465Z,2.60
2023-03-31T09:35:26.107Z,2.70
2023-03-31T09:38:08.944Z,2.17
2023-03-31T09:40:37.473Z,3.03
2023-03-31T09:43:10.909Z,2.60
2023-03-31T09:45:39.297Z,2.95
2023-03-31T09:48:15.418Z,3.38
2023-03-31T09:50:48.500Z,2.60
2023-03-31T09:53:26.841Z,3.25
2023-03-31T09:56:02.125Z,3.00
2023-03-31T09:58:30.878Z,3.30
2023-03-31T10:01:04.506Z,3.33
2023-03-31T10:03:37.195Z,3.22
2023-03-31T10:06:12.668Z,4.00
2023-03-31T10:11:14.531Z,4.28
2023-03-31T10:13:48.887Z,3.90
2023-03-31T10:16:25.929Z,3.73
2023-03-31T10:18:55.265Z,3.15
2023-03-31T10:21:27.224Z,5.47
2023-03-31T10:24:02.617Z,3.33
2023-03-31T10:29:01.196Z,3.55
2023-03-31T10:31:39.591Z,3.67
2023-03-31T10:34:12.788Z,3.17
2023-03-31T10:36:48.673Z,3.28
2023-03-31T10:39:21.117Z,3.47
2023-03-31T10:41:53.608Z,3.83
2023-03-31T10:44:35.457Z,3.70
2023-03-31T10:47:19.221Z,3.50
2023-03-31T10:49:57.388Z,3.40
2023-03-31T10:52:28.742Z,3.53
2023-03-31T10:55:01.302Z,3.65
2023-03-31T10:57:45.466Z,3.72
2023-03-31T11:00:32.263Z,3.88
2023-03-31T11:03:43.485Z,3.40
2023-03-31T11:06:57.879Z,3.72
2023-03-31T11:09:57.230Z,3.22
2023-03-31T11:12:37.309Z,3.03
2023-03-31T11:15:21.022Z,3.13
2023-03-31T11:18:16.091Z,3.15
2023-03-31T11:21:07.234Z,3.67
2023-03-31T11:23:44.423Z,3.30
2023-03-31T11:26:19.033Z,3.30
2023-03-31T11:29:21.843Z,3.33
2023-03-31T11:32:00.584Z,3.10
2023-03-31T11:34:53.296Z,3.05
2023-03-31T11:37:54.030Z,2.72
2023-03-31T11:40:48.900Z,2.70
2023-03-31T11:43:30.342Z,2.63
2023-03-31T11:46:17.882Z,2.92
2023-03-31T11:48:58.006Z,2.97
2023-03-31T11:51:34.235Z,3.03
2023-03-31T11:54:12.739Z,2.80
2023-03-31T11:56:48.351Z,3.20
2023-03-31T12:02:34.843Z,2.65
2023-03-31T12:05:20.074Z,2.38
2023-03-31T12:07:59.215Z,2.10
2023-03-31T12:10:36.947Z,2.60
2023-03-31T12:13:29.549Z,2.22
2023-03-31T12:16:06.913Z,2.65
2023-03-31T12:18:43.935Z,2.55
2023-03-31T12:21:15.567Z,2.47
2023-03-31T12:23:46.977Z,2.45
2023-03-31T12:26:38.778Z,2.85
2023-03-31T12:29:24.393Z,2.85
2023-03-31T12:31:57.236Z,4.20
2023-03-31T12:34:30.237Z,2.42
2023-03-31T12:37:17.511Z,2.97
2023-03-31T12:40:00.793Z,2.80
2023-03-31T12:43:00.681Z,2.03
2023-03-31T12:45:31.519Z,1.90
2023-03-31T12:48:36.876Z,1.52
2023-03-31T12:51:25.988Z,1.80
2023-03-31T12:54:16.722Z,1.90
2023-03-31T12:57:06.890Z,1.58
2023-03-31T12:59:39.689Z,2.53
2023-03-31T13:02:26.923Z,2.10
2023-03-31T13:04:56.351Z,1.88
2023-03-31T13:07:43.433Z,1.77
2023-03-31T13:10:33.324Z,1.67
2023-03-31T13:13:13.135Z,1.85
2023-03-31T13:15:42.478Z,1.88
2023-03-31T13:18:23.341Z,2.58
2023-03-31T13:21:01.053Z,2.47
2023-03-31T13:23:37.981Z,2.67
2023-03-31T13:26:07.414Z,2.50
2023-03-31T13:28:43.135Z,2.20
2023-03-31T13:31:13.614Z,2.50
2023-03-31T13:33:57.627Z,2.50
2023-03-31T13:37:05.322Z,2.17
2023-03-31T13:40:21.844Z,2.58
2023-03-31T13:43:50.776Z,2.20
2023-03-31T13:47:15.548Z,2.85
2023-03-31T13:50:05.442Z,2.60
2023-03-31T13:52:46.421Z,2.60
2023-03-31T13:55:50.328Z,2.08
2023-03-31T13:58:50.034Z,1.95
2023-03-31T14:01:47.229Z,2.25
2023-03-31T14:04:45.558Z,2.58
2023-03-31T14:07:19.383Z,3.13
2023-03-31T14:09:54.286Z,2.15
2023-03-31T14:12:33.858Z,1.98
2023-03-31T14:15:03.787Z,2.45
2023-03-31T14:17:35.385Z,2.40
2023-03-31T14:20:30.751Z,2.20
2023-03-31T14:23:13.776Z,2.40
2023-03-31T14:25:53.292Z,2.30
2023-03-31T14:32:55.412Z,2.70
2023-03-31T14:35:34.003Z,2.25
2023-03-31T14:38:05.367Z,2.35
2023-03-31T14:40:33.944Z,2.47
2023-03-31T14:43:02.547Z,2.45
2023-03-31T14:45:35.030Z,2.60
2023-03-31T14:48:17.423Z,2.60
2023-03-31T14:50:58.689Z,1.67
2023-03-31T14:53:30.086Z,1.63
2023-03-31T14:56:07.019Z,2.10
2023-03-31T14:58:40.907Z,2.22
2023-03-31T15:01:14.196Z,2.50
2023-03-31T15:03:45.881Z,2.05
2023-03-31T15:06:15.420Z,2.15
2023-03-31T15:08:46.244Z,3.95
2023-03-31T15:11:20.880Z,2.28
2023-03-31T15:14:03.456Z,1.75
2023-03-31T15:16:42.847Z,1.60
2023-03-31T15:19:23.841Z,2.00
2023-03-31T15:21:58.118Z,1.58
2023-03-31T15:24:26.830Z,1.75
2023-03-31T15:27:02.735Z,1.90
2023-03-31T15:29:39.138Z,1.48
2023-03-31T15:32:15.590Z,1.10
2023-03-31T15:34:48.170Z,1.38
2023-03-31T15:37:16.942Z,1.60
2023-03-31T15:39:50.126Z,1.58
2023-03-31T15:42:20.724Z,1.90
2023-03-31T15:45:02.847Z,1.80
2023-03-31T15:47:37.884Z,1.90
2023-03-31T15:50:18.518Z,2.28
2023-03-31T15:52:53.171Z,2.28
2023-03-31T15:55:31.294Z,2.20
2023-03-31T15:58:01.988Z,2.50
2023-03-31T16:00:50.980Z,1.92
2023-03-31T16:03:25.166Z,2.30
2023-03-31T16:05:59.846Z,2.95
2023-03-31T16:08:35.052Z,3.92
2023-03-31T16:11:08.859Z,2.53
2023-03-31T16:13:45.126Z,2.38
2023-03-31T16:16:21.854Z,2.28
2023-03-31T16:18:53.775Z,2.30
2023-03-31T16:21:27.607Z,3.05
2023-03-31T16:24:00.983Z,3.42
2023-03-31T16:26:32.726Z,3.08
2023-03-31T16:29:02.113Z,2.97
2023-03-31T16:31:35.919Z,2.60
2023-03-31T16:34:09.977Z,2.35
2023-03-31T16:36:41.032Z,2.10
2023-03-31T16:39:09.454Z,3.20
2023-03-31T16:41:39.284Z,3.42
2023-03-31T16:44:07.678Z,2.20
2023-03-31T16:46:36.019Z,2.50
2023-03-31T16:49:05.125Z,2.35
2023-03-31T16:51:34.424Z,3.30
2023-03-31T16:54:05.004Z,2.83
2023-03-31T16:56:33.324Z,3.20
2023-03-31T16:59:02.322Z,2.33
2023-03-31T17:01:31.066Z,2.60
2023-03-31T17:03:59.427Z,2.75
2023-03-31T17:06:28.266Z,3.28
2023-03-31T17:08:56.864Z,3.60
2023-03-31T17:11:34.491Z,3.03
2023-03-31T17:14:06.680Z,3.40
2023-03-31T17:16:47.338Z,3.60
2023-03-31T17:19:19.716Z,2.92
2023-03-31T17:21:48.464Z,3.35
2023-03-31T17:24:18.382Z,2.95
2023-03-31T17:29:55.824Z,3.67
2023-03-31T17:32:26.705Z,3.22
2023-03-31T17:34:57.504Z,3.13
2023-03-31T17:37:26.240Z,3.67
2023-03-31T17:39:55.486Z,3.67
2023-03-31T17:42:25.435Z,4.00
2023-03-31T17:44:58.719Z,4.03
2023-03-31T17:47:27.910Z,3.72
2023-03-31T17:49:59.818Z,3.60
2023-03-31T17:52:29.679Z,3.63
2023-03-31T17:54:59.491Z,3.28
2023-03-31T17:57:29.622Z,3.40
2023-03-31T17:59:58.530Z,3.95
2023-03-31T18:02:27.582Z,3.97
2023-03-31T18:04:56.043Z,4.13
2023-03-31T18:07:24.959Z,3.97
2023-03-31T18:09:54.373Z,4.28
2023-03-31T18:12:24.142Z,4.70
2023-03-31T18:14:54.472Z,4.38
2023-03-31T18:17:24.297Z,4.50
2023-03-31T18:19:53.505Z,4.95
2023-03-31T18:22:23.845Z,4.72
2023-03-31T18:24:52.569Z,5.35
2023-03-31T18:27:24.974Z,5.30
2023-03-31T18:30:02.655Z,5.90
2023-03-31T18:32:34.743Z,6.30
2023-03-31T18:35:05.339Z,5.22
2023-03-31T18:37:41.201Z,6.10
2023-03-31T18:40:22.211Z,5.00
2023-03-31T18:42:51.482Z,5.15
2023-03-31T18:45:29.532Z,5.57
2023-03-31T18:48:13.434Z,5.82
2023-03-31T18:50:49.471Z,5.85
2023-03-31T18:53:23.236Z,6.15
2023-03-31T18:55:57.449Z,5.88
2023-03-31T18:58:35.350Z,5.75
2023-03-31T19:01:06.701Z,6.90
2023-03-31T19:03:36.583Z,6.60
2023-03-31T19:06:15.819Z,6.45
2023-03-31T19:08:51.579Z,6.60
2023-03-31T19:11:22.839Z,7.40
2023-03-31T19:13:54.616Z,7.28
2023-03-31T19:16:31.140Z,7.90
2023-03-31T19:19:01.172Z,6.93
2023-03-31T19:21:32.825Z,6.80
2023-03-31T19:24:15.516Z,7.13
2023-03-31T19:26:52.720Z,7.85
2023-03-31T19:29:21.713Z,7.93
2023-03-31T19:32:00.041Z,8.55
2023-03-31T19:34:32.182Z,7.13
2023-03-31T19:37:02.180Z,6.65
2023-03-31T19:39:32.041Z,7.68
2023-03-31T19:42:05.337Z,7.10
2023-03-31T19:44:37.612Z,6.88
2023-03-31T19:47:08.722Z,7.32
2023-03-31T19:49:38.224Z,7.05
2023-03-31T19:52:08.793Z,7.22
2023-03-31T19:54:37.910Z,7.05
2023-03-31T19:57:07.295Z,6.97
2023-03-31T19:59:37.394Z,7.80
2023-03-31T20:02:09.001Z,7.40
2023-03-31T20:04:38.371Z,7.97
2023-03-31T20:07:08.057Z,8.60
2023-03-31T20:09:37.454Z,8.43
2023-03-31T20:12:07.040Z,8.57
2023-03-31T20:14:36.872Z,9.65
2023-03-31T20:17:07.840Z,10.27
2023-03-31T20:19:47.251Z,9.75
2023-03-31T20:22:17.760Z,8.90
2023-03-31T20:24:46.965Z,9.52
2023-03-31T20:27:16.106Z,10.52
2023-03-31T20:29:45.486Z,9.60
2023-03-31T20:32:17.433Z,9.20
2023-03-31T20:34:46.311Z,8.75
2023-03-31T20:37:15.140Z,8.38
2023-03-31T20:39:44.833Z,8.45
2023-03-31T20:42:14.949Z,9.02
2023-03-31T20:44:44.286Z,9.63
2023-03-31T20:47:14.373Z,8.57
2023-03-31T20:49:44.698Z,9.25
2023-03-31T20:52:13.459Z,7.82
2023-03-31T20:54:42.049Z,8.73
2023-03-31T20:57:12.130Z,8.27
2023-03-31T20:59:40.751Z,8.73
2023-03-31T21:02:11.836Z,7.95
2023-03-31T21:04:40.609Z,8.13
2023-03-31T21:07:10.596Z,7.75
2023-03-31T21:09:39.391Z,7.18
2023-03-31T21:12:08.564Z,6.60
2023-03-31T21:14:38.129Z,7.75
2023-03-31T21:17:07.501Z,7.93
2023-03-31T21:19:38.148Z,6.70
2023-03-31T21:22:07.340Z,6.75
2023-03-31T21:24:37.887Z,6.57
2023-03-31T21:27:06.581Z,6.57
2023-03-31T21:29:35.259Z,7.28
2023-03-31T21:32:03.756Z,6.82
2023-03-31T21:34:32.289Z,6.28
2023-03-31T21:37:01.802Z,6.32
2023-03-31T21:39:31.047Z,6.70
2023-03-31T21:42:01.010Z,5.80
2023-03-31T21:44:29.806Z,6.57
2023-03-31T21:46:58.600Z,6.35
2023-03-31T21:49:28.819Z,6.10
2023-03-31T21:51:57.500Z,6.35
2023-03-31T21:54:27.262Z,6.53
2023-03-31T21:56:56.563Z,6.03
2023-03-31T21:59:27.959Z,6.10
2023-03-31T22:01:57.621Z,6.15
2023-03-31T22:04:26.618Z,6.07
2023-03-31T22:06:55.437Z,5.88
2023-03-31T22:09:24.618Z,5.88
2023-03-31T22:11:53.337Z,5.97
2023-03-31T22:14:21.835Z,6.10
2023-03-31T22:16:51.960Z,6.43
2023-03-31T22:19:20.894Z,6.03
2023-03-31T22:21:50.157Z,6.05
2023-03-31T22:24:19.142Z,5.80
2023-03-31T22:26:47.717Z,6.20
2023-03-31T22:29:17.426Z,5.88
2023-03-31T22:31:46.102Z,6.43
2023-03-31T22:34:19.086Z,7.65
2023-03-31T22:36:49.218Z,8.50
2023-03-31T22:39:18.505Z,9.00
2023-03-31T22:41:49.252Z,9.60
2023-03-31T22:44:18.338Z,9.93
2023-03-31T22:46:47.080Z,9.88
2023-03-31T22:49:17.350Z,10.93
2023-03-31T22:51:45.926Z,11.38
2023-03-31T22:54:15.567Z,13.10
2023-03-31T22:56:45.590Z,11.77
2023-03-31T22:59:14.044Z,12.57
2023-03-31T23:01:42.729Z,12.48
2023-03-31T23:04:11.155Z,12.60
2023-03-31T23:06:42.094Z,12.93
2023-03-31T23:09:10.873Z,13.68
2023-03-31T23:11:39.565Z,13.15
2023-03-31T23:14:08.245Z,14.40
2023-03-31T23:16:36.980Z,15.02
2023-03-31T23:19:06.019Z,15.75
2023-03-31T23:21:35.714Z,14.50
2023-03-31T23:24:06.754Z,15.18
2023-03-31T23:26:36.194Z,15.70
2023-03-31T23:29:05.430Z,14.25
2023-03-31T23:31:36.114Z,15.65
2023-03-31T23:34:05.739Z,15.00
2023-03-31T23:36:34.761Z,15.63
2023-03-31T23:39:06.735Z,17.05
2023-03-31T23:41:37.008Z,16.95
2023-03-31T23:44:13.329Z,15.95
2023-03-31T23:46:45.144Z,16.65
2023-03-31T23:49:14.702Z,14.45
2023-03-31T23:51:46.156Z,14.93
2023-03-31T23:54:16.972Z,14.70
2023-03-31T23:56:45.809Z,13.90
2023-03-31T23:59:14.462Z,13.00
